createdAt,value
2017-03-22T00:00:25.938Z,1006.09
2017-03-22T00:01:25.919Z,1006.12
2017-03-22T00:02:25.896Z,1006.08
2017-03-22T00:03:25.876Z,1006.12
2017-03-22T00:04:25.862Z,1006.1
2017-03-22T00:05:25.835Z,1006.12
2017-03-22T00:06:25.815Z,1006.11
2017-03-22T00:07:25.795Z,1006.09
2017-03-22T00:08:25.775Z,1006.1
2017-03-22T00:09:25.754Z,1006.1
2017-03-22T00:10:25.782Z,1006.12
2017-03-22T00:11:25.713Z,1006.13
2017-03-22T00:12:25.692Z,1006.12
2017-03-22T00:13:25.672Z,1006.13
2017-03-22T00:14:25.651Z,1006.13
2017-03-22T00:15:25.637Z,1006.09
2017-03-22T00:16:25.612Z,1006.13
2017-03-22T00:17:25.592Z,1006.14
2017-03-22T00:18:25.572Z,1006.14
2017-03-22T00:19:25.551Z,1006.09
2017-03-22T00:20:25.531Z,1006.11
2017-03-22T00:21:25.510Z,1006.09
2017-03-22T00:22:25.491Z,1006.03
2017-03-22T00:23:25.470Z,1006.03
2017-03-22T00:24:25.454Z,1006.04
2017-03-22T00:25:25.428Z,1006.01
2017-03-22T00:26:25.407Z,1006.01
2017-03-22T00:27:25.395Z,1006
2017-03-22T00:28:25.367Z,1006.03
2017-03-22T00:29:25.348Z,1006.02
2017-03-22T00:30:25.327Z,1005.99
2017-03-22T00:31:25.309Z,1005.96
2017-03-22T00:32:25.287Z,1005.97
2017-03-22T00:33:25.268Z,1005.99
2017-03-22T00:34:25.247Z,1005.96
2017-03-22T00:35:25.227Z,1005.95
2017-03-22T00:36:25.206Z,1005.94
2017-03-22T00:37:25.185Z,1005.94
2017-03-22T00:38:25.165Z,1005.9
2017-03-22T00:39:25.143Z,1005.91
2017-03-22T00:40:25.123Z,1005.92
2017-03-22T00:41:25.107Z,1005.92
2017-03-22T00:42:25.083Z,1005.88
2017-03-22T00:43:25.064Z,1005.9
2017-03-22T00:44:25.043Z,1005.89
2017-03-22T00:45:25.023Z,1005.92
2017-03-22T00:46:25.002Z,1005.87
2017-03-22T00:47:24.982Z,1005.86
2017-03-22T00:48:24.966Z,1005.88
2017-03-22T00:49:24.942Z,1005.89
2017-03-22T00:50:24.921Z,1005.91
2017-03-22T00:51:24.900Z,1005.9
2017-03-22T00:52:24.882Z,1005.89
2017-03-22T00:53:24.860Z,1005.91
2017-03-22T00:54:24.842Z,1005.91
2017-03-22T00:55:24.819Z,1005.89
2017-03-22T00:56:24.801Z,1005.92
2017-03-22T00:57:24.779Z,1005.94
2017-03-22T00:58:24.758Z,1005.92
2017-03-22T00:59:24.739Z,1005.88
2017-03-22T01:00:24.719Z,1005.85
2017-03-22T01:01:24.698Z,1005.89
2017-03-22T01:02:24.677Z,1005.86
2017-03-22T01:03:24.658Z,1005.92
2017-03-22T01:04:24.637Z,1005.87
2017-03-22T01:05:24.617Z,1005.85
2017-03-22T01:06:24.597Z,1005.81
2017-03-22T01:07:24.577Z,1005.83
2017-03-22T01:08:24.556Z,1005.83
2017-03-22T01:09:24.536Z,1005.85
2017-03-22T01:10:24.517Z,1005.86
2017-03-22T01:11:24.496Z,1005.85
2017-03-22T01:12:24.475Z,1005.83
2017-03-22T01:13:24.454Z,1005.83
2017-03-22T01:14:24.435Z,1005.83
2017-03-22T01:15:24.414Z,1005.86
2017-03-22T01:16:24.392Z,1005.87
2017-03-22T01:17:24.372Z,1005.85
2017-03-22T01:18:24.353Z,1005.89
2017-03-22T01:19:24.330Z,1005.84
2017-03-22T01:20:24.310Z,1005.87
2017-03-22T01:21:24.289Z,1005.88
2017-03-22T01:22:24.270Z,1005.86
2017-03-22T01:23:24.453Z,1005.85
2017-03-22T01:24:24.228Z,1005.84
2017-03-22T01:25:24.207Z,1005.87
2017-03-22T01:26:24.188Z,1005.87
2017-03-22T01:27:24.166Z,1005.86
2017-03-22T01:28:24.146Z,1005.87
2017-03-22T01:29:24.125Z,1005.85
2017-03-22T01:30:24.104Z,1005.87
2017-03-22T01:31:24.083Z,1005.86
2017-03-22T01:32:24.066Z,1005.84
2017-03-22T01:33:24.048Z,1005.84
2017-03-22T01:34:24.023Z,1005.82
2017-03-22T01:35:24.001Z,1005.8
2017-03-22T01:36:23.980Z,1005.85
2017-03-22T01:37:23.960Z,1005.86
2017-03-22T01:38:23.939Z,1005.87
2017-03-22T01:39:23.918Z,1005.86
2017-03-22T01:40:23.896Z,1005.82
2017-03-22T01:41:23.875Z,1005.85
2017-03-22T01:42:23.855Z,1005.87
2017-03-22T01:43:23.836Z,1005.86
2017-03-22T01:44:23.821Z,1005.86
2017-03-22T01:45:23.792Z,1005.87
2017-03-22T01:46:23.773Z,1005.86
2017-03-22T01:47:23.750Z,1005.86
2017-03-22T01:48:23.731Z,1005.86
2017-03-22T01:49:23.710Z,1005.86
2017-03-22T01:50:23.689Z,1005.85
2017-03-22T01:51:23.669Z,1005.86
2017-03-22T01:52:23.654Z,1005.82
2017-03-22T01:53:23.628Z,1005.84
2017-03-22T01:54:23.606Z,1005.84
2017-03-22T01:55:23.586Z,1005.85
2017-03-22T01:56:23.565Z,1005.83
2017-03-22T01:57:23.544Z,1005.82
2017-03-22T01:58:23.525Z,1005.83
2017-03-22T01:59:23.503Z,1005.86
2017-03-22T02:00:23.479Z,1005.79
2017-03-22T02:01:23.460Z,1005.8
2017-03-22T02:02:23.440Z,1005.8
2017-03-22T02:03:23.419Z,1005.78
2017-03-22T02:04:23.398Z,1005.8
2017-03-22T02:05:23.407Z,1005.76
2017-03-22T02:06:23.354Z,1005.77
2017-03-22T02:07:23.334Z,1005.72
2017-03-22T02:08:23.313Z,1005.75
2017-03-22T02:09:23.293Z,1005.75
2017-03-22T02:10:23.271Z,1005.74
2017-03-22T02:11:23.250Z,1005.77
2017-03-22T02:12:23.236Z,1005.79
2017-03-22T02:13:23.208Z,1005.78
2017-03-22T02:14:23.184Z,1005.79
2017-03-22T02:15:23.165Z,1005.77
2017-03-22T02:16:23.169Z,1005.78
2017-03-22T02:17:23.123Z,1005.75
2017-03-22T02:18:23.102Z,1005.77
2017-03-22T02:19:23.086Z,1005.76
2017-03-22T02:20:23.059Z,1005.77
2017-03-22T02:21:23.042Z,1005.81
2017-03-22T02:22:23.018Z,1005.77
2017-03-22T02:23:23.001Z,1005.81
2017-03-22T02:24:22.977Z,1005.81
2017-03-22T02:25:22.954Z,1005.82
2017-03-22T02:26:22.933Z,1005.81
2017-03-22T02:27:22.911Z,1005.81
2017-03-22T02:28:22.891Z,1005.81
2017-03-22T02:29:22.868Z,1005.82
2017-03-22T02:30:22.848Z,1005.83
2017-03-22T02:31:22.827Z,1005.8
2017-03-22T02:32:22.806Z,1005.79
2017-03-22T02:33:22.786Z,1005.77
2017-03-22T02:34:22.765Z,1005.77
2017-03-22T02:35:22.744Z,1005.79
2017-03-22T02:36:22.721Z,1005.78
2017-03-22T02:37:22.701Z,1005.78
2017-03-22T02:38:22.679Z,1005.79
2017-03-22T02:39:22.658Z,1005.79
2017-03-22T02:40:22.638Z,1005.81
2017-03-22T02:41:22.616Z,1005.81
2017-03-22T02:42:22.595Z,1005.83
2017-03-22T02:43:22.574Z,1005.8
2017-03-22T02:44:22.556Z,1005.87
2017-03-22T02:45:22.532Z,1005.88
2017-03-22T02:46:22.513Z,1005.92
2017-03-22T02:47:22.490Z,1005.91
2017-03-22T02:48:22.470Z,1005.92
2017-03-22T02:49:22.449Z,1005.96
2017-03-22T02:50:22.427Z,1005.93
2017-03-22T02:51:22.405Z,1005.95
2017-03-22T02:52:22.385Z,1005.93
2017-03-22T02:53:22.363Z,1005.95
2017-03-22T02:54:22.341Z,1005.97
2017-03-22T02:55:22.322Z,1005.98
2017-03-22T02:56:22.299Z,1006
2017-03-22T02:57:22.279Z,1006.03
2017-03-22T02:58:22.257Z,1006
2017-03-22T02:59:22.236Z,1006.01
2017-03-22T03:00:22.216Z,1006.02
2017-03-22T03:01:22.195Z,1005.98
2017-03-22T03:02:22.173Z,1005.99
2017-03-22T03:03:22.157Z,1006.01
2017-03-22T03:04:22.131Z,1006.01
2017-03-22T03:05:22.109Z,1006.03
2017-03-22T03:06:22.091Z,1006.02
2017-03-22T03:07:22.068Z,1006
2017-03-22T03:08:22.048Z,1006
2017-03-22T03:09:22.046Z,1006.04
2017-03-22T03:10:22.005Z,1006
2017-03-22T03:11:21.982Z,1006.06
2017-03-22T03:12:21.963Z,1006.02
2017-03-22T03:13:21.946Z,1006.07
2017-03-22T03:14:21.920Z,1006.09
2017-03-22T03:15:21.902Z,1006.07
2017-03-22T03:16:21.878Z,1006.13
2017-03-22T03:17:21.858Z,1006.12
2017-03-22T03:18:21.834Z,1006.09
2017-03-22T03:19:21.813Z,1006.11
2017-03-22T03:20:21.793Z,1006.11
2017-03-22T03:21:21.772Z,1006.15
2017-03-22T03:22:21.750Z,1006.15
2017-03-22T03:23:21.730Z,1006.15
2017-03-22T03:24:21.712Z,1006.18
2017-03-22T03:25:21.687Z,1006.18
2017-03-22T03:26:21.666Z,1006.17
2017-03-22T03:27:21.645Z,1006.18
2017-03-22T03:28:21.623Z,1006.19
2017-03-22T03:29:21.602Z,1006.2
2017-03-22T03:30:21.585Z,1006.2
2017-03-22T03:31:21.561Z,1006.22
2017-03-22T03:32:21.540Z,1006.23
2017-03-22T03:33:21.519Z,1006.2
2017-03-22T03:34:21.497Z,1006.2
2017-03-22T03:35:21.477Z,1006.22
2017-03-22T03:36:21.455Z,1006.23
2017-03-22T03:37:21.434Z,1006.22
2017-03-22T03:38:21.412Z,1006.21
2017-03-22T03:39:21.390Z,1006.25
2017-03-22T03:40:21.369Z,1006.25
2017-03-22T03:41:21.348Z,1006.26
2017-03-22T03:42:21.326Z,1006.25
2017-03-22T03:43:21.308Z,1006.28
2017-03-22T03:44:21.286Z,1006.29
2017-03-22T03:45:21.265Z,1006.27
2017-03-22T03:46:21.241Z,1006.26
2017-03-22T03:47:21.220Z,1006.24
2017-03-22T03:48:21.201Z,1006.24
2017-03-22T03:49:21.178Z,1006.24
2017-03-22T03:50:21.155Z,1006.26
2017-03-22T03:51:21.137Z,1006.26
2017-03-22T03:52:21.114Z,1006.25
2017-03-22T03:53:21.092Z,1006.26
2017-03-22T03:54:21.074Z,1006.21
2017-03-22T03:55:21.052Z,1006.26
2017-03-22T03:56:21.029Z,1006.27
2017-03-22T03:57:21.007Z,1006.26
2017-03-22T03:58:20.990Z,1006.27
2017-03-22T03:59:20.965Z,1006.29
2017-03-22T04:00:20.942Z,1006.29
2017-03-22T04:01:20.922Z,1006.24
2017-03-22T04:02:20.901Z,1006.25
2017-03-22T04:03:20.881Z,1006.25
2017-03-22T04:04:20.858Z,1006.26
2017-03-22T04:05:20.838Z,1006.23
2017-03-22T04:06:20.815Z,1006.19
2017-03-22T04:07:20.794Z,1006.22
2017-03-22T04:08:20.822Z,1006.21
2017-03-22T04:09:20.751Z,1006.22
2017-03-22T04:10:20.731Z,1006.23
2017-03-22T04:11:20.708Z,1006.26
2017-03-22T04:12:20.686Z,1006.2
2017-03-22T04:13:20.667Z,1006.26
2017-03-22T04:14:20.646Z,1006.23
2017-03-22T04:15:20.624Z,1006.24
2017-03-22T04:16:20.602Z,1006.22
2017-03-22T04:17:20.579Z,1006.25
2017-03-22T04:18:20.563Z,1006.25
2017-03-22T04:19:20.544Z,1006.27
2017-03-22T04:20:20.515Z,1006.29
2017-03-22T04:21:20.496Z,1006.26
2017-03-22T04:22:20.528Z,1006.23
2017-03-22T04:23:20.451Z,1006.27
2017-03-22T04:24:20.433Z,1006.29
2017-03-22T04:25:20.414Z,1006.25
2017-03-22T04:26:20.387Z,1006.26
2017-03-22T04:27:20.367Z,1006.29
2017-03-22T04:28:20.345Z,1006.27
2017-03-22T04:29:20.323Z,1006.28
2017-03-22T04:30:20.301Z,1006.25
2017-03-22T04:31:20.281Z,1006.23
2017-03-22T04:32:20.258Z,1006.24
2017-03-22T04:33:20.237Z,1006.26
2017-03-22T04:34:20.215Z,1006.22
2017-03-22T04:35:20.196Z,1006.23
2017-03-22T04:36:20.174Z,1006.21
2017-03-22T04:37:20.154Z,1006.21
2017-03-22T04:38:20.130Z,1006.19
2017-03-22T04:39:20.109Z,1006.17
2017-03-22T04:40:20.085Z,1006.19
2017-03-22T04:41:20.064Z,1006.16
2017-03-22T04:42:20.045Z,1006.13
2017-03-22T04:43:20.073Z,1006.15
2017-03-22T04:44:20.002Z,1006.19
2017-03-22T04:45:19.979Z,1006.17
2017-03-22T04:46:19.957Z,1006.17
2017-03-22T04:47:19.936Z,1006.2
2017-03-22T04:48:19.914Z,1006.2
2017-03-22T04:49:19.893Z,1006.21
2017-03-22T04:50:19.872Z,1006.22
2017-03-22T04:51:19.851Z,1006.18
2017-03-22T04:52:19.833Z,1006.21
2017-03-22T04:53:19.808Z,1006.2
2017-03-22T04:54:19.800Z,1006.19
2017-03-22T04:55:19.763Z,1006.21
2017-03-22T04:56:19.746Z,1006.17
2017-03-22T04:57:19.721Z,1006.17
2017-03-22T04:58:19.701Z,1006.18
2017-03-22T04:59:19.677Z,1006.16
2017-03-22T05:00:19.657Z,1006.15
2017-03-22T05:01:19.635Z,1006.14
2017-03-22T05:02:19.614Z,1006.15
2017-03-22T05:03:19.593Z,1006.12
2017-03-22T05:04:19.570Z,1006.16
2017-03-22T05:05:19.548Z,1006.17
2017-03-22T05:06:19.530Z,1006.18
2017-03-22T05:07:19.504Z,1006.18
2017-03-22T05:08:19.485Z,1006.18
2017-03-22T05:09:19.464Z,1006.19
2017-03-22T05:10:19.438Z,1006.2
2017-03-22T05:11:19.418Z,1006.2
2017-03-22T05:12:19.398Z,1006.23
2017-03-22T05:13:19.375Z,1006.19
2017-03-22T05:14:19.354Z,1006.22
2017-03-22T05:15:19.333Z,1006.22
2017-03-22T05:16:19.313Z,1006.28
2017-03-22T05:17:19.289Z,1006.25
2017-03-22T05:18:19.266Z,1006.23
2017-03-22T05:19:19.249Z,1006.21
2017-03-22T05:20:19.224Z,1006.21
2017-03-22T05:21:19.203Z,1006.2
2017-03-22T05:22:19.182Z,1006.24
2017-03-22T05:23:19.161Z,1006.21
2017-03-22T05:24:19.339Z,1006.26
2017-03-22T05:25:19.116Z,1006.24
2017-03-22T05:26:19.093Z,1006.2
2017-03-22T05:27:19.074Z,1006.19
2017-03-22T05:28:19.051Z,1006.22
2017-03-22T05:29:19.029Z,1006.19
2017-03-22T05:30:19.007Z,1006.2
2017-03-22T05:31:18.986Z,1006.21
2017-03-22T05:32:18.962Z,1006.2
2017-03-22T05:33:18.942Z,1006.22
2017-03-22T05:34:18.920Z,1006.24
2017-03-22T05:35:18.899Z,1006.23
2017-03-22T05:36:18.879Z,1006.21
2017-03-22T05:37:18.905Z,1006.24
2017-03-22T05:38:18.832Z,1006.26
2017-03-22T05:39:18.810Z,1006.27
2017-03-22T05:40:18.788Z,1006.24
2017-03-22T05:41:18.767Z,1006.29
2017-03-22T05:42:18.745Z,1006.26
2017-03-22T05:43:18.723Z,1006.25
2017-03-22T05:44:18.701Z,1006.26
2017-03-22T05:45:18.679Z,1006.24
2017-03-22T05:46:18.659Z,1006.19
2017-03-22T05:47:18.636Z,1006.17
2017-03-22T05:48:18.614Z,1006.18
2017-03-22T05:49:18.595Z,1006.18
2017-03-22T05:50:18.569Z,1006.18
2017-03-22T05:51:18.551Z,1006.16
2017-03-22T05:52:18.527Z,1006.18
2017-03-22T05:53:18.504Z,1006.21
2017-03-22T05:54:18.485Z,1006.19
2017-03-22T05:55:18.462Z,1006.19
2017-03-22T05:56:18.440Z,1006.18
2017-03-22T05:57:18.417Z,1006.17
2017-03-22T05:58:18.399Z,1006.17
2017-03-22T05:59:18.374Z,1006.17
2017-03-22T06:00:18.353Z,1006.16
2017-03-22T06:01:18.330Z,1006.15
2017-03-22T06:02:18.309Z,1006.17
2017-03-22T06:03:18.288Z,1006.18
2017-03-22T06:04:18.265Z,1006.19
2017-03-22T06:05:18.242Z,1006.17
2017-03-22T06:06:18.224Z,1006.2
2017-03-22T06:07:18.202Z,1006.18
2017-03-22T06:08:18.177Z,1006.2
2017-03-22T06:09:18.163Z,1006.26
2017-03-22T06:10:18.140Z,1006.23
2017-03-22T06:11:18.115Z,1006.24
2017-03-22T06:12:18.099Z,1006.22
2017-03-22T06:13:18.070Z,1006.24
2017-03-22T06:14:18.046Z,1006.24
2017-03-22T06:15:18.024Z,1006.23
2017-03-22T06:16:18.004Z,1006.2
2017-03-22T06:17:17.983Z,1006.24
2017-03-22T06:18:17.960Z,1006.24
2017-03-22T06:19:17.940Z,1006.23
2017-03-22T06:20:17.916Z,1006.29
2017-03-22T06:21:17.895Z,1006.23
2017-03-22T06:22:17.874Z,1006.22
2017-03-22T06:23:17.853Z,1006.24
2017-03-22T06:24:17.836Z,1006.25
2017-03-22T06:25:17.808Z,1006.24
2017-03-22T06:26:17.786Z,1006.24
2017-03-22T06:27:17.765Z,1006.22
2017-03-22T06:28:17.743Z,1006.26
2017-03-22T06:29:17.723Z,1006.2
2017-03-22T06:30:17.700Z,1006.24
2017-03-22T06:31:17.680Z,1006.22
2017-03-22T06:32:17.657Z,1006.21
2017-03-22T06:33:17.637Z,1006.17
2017-03-22T06:34:17.615Z,1006.22
2017-03-22T06:35:17.595Z,1006.2
2017-03-22T06:36:17.572Z,1006.18
2017-03-22T06:37:17.551Z,1006.19
2017-03-22T06:38:17.529Z,1006.19
2017-03-22T06:39:17.508Z,1006.24
2017-03-22T06:40:17.487Z,1006.23
2017-03-22T06:41:17.464Z,1006.23
2017-03-22T06:42:17.494Z,1006.21
2017-03-22T06:43:17.424Z,1006.26
2017-03-22T06:44:17.402Z,1006.26
2017-03-22T06:45:17.382Z,1006.26
2017-03-22T06:46:17.360Z,1006.26
2017-03-22T06:47:17.337Z,1006.26
2017-03-22T06:48:17.321Z,1006.28
2017-03-22T06:49:17.346Z,1006.28
2017-03-22T06:50:17.273Z,1006.25
2017-03-22T06:51:17.254Z,1006.25
2017-03-22T06:52:17.231Z,1006.29
2017-03-22T06:53:17.210Z,1006.29
2017-03-22T06:54:17.190Z,1006.31
2017-03-22T06:55:17.167Z,1006.29
2017-03-22T06:56:17.147Z,1006.31
2017-03-22T06:57:17.125Z,1006.28
2017-03-22T06:58:17.105Z,1006.32
2017-03-22T06:59:17.084Z,1006.29
2017-03-22T07:00:17.061Z,1006.3
2017-03-22T07:01:17.040Z,1006.33
2017-03-22T07:02:17.021Z,1006.33
2017-03-22T07:03:17.000Z,1006.36
2017-03-22T07:04:16.977Z,1006.35
2017-03-22T07:05:16.958Z,1006.36
2017-03-22T07:06:16.937Z,1006.37
2017-03-22T07:07:16.915Z,1006.37
2017-03-22T07:08:16.895Z,1006.38
2017-03-22T07:09:16.874Z,1006.4
2017-03-22T07:10:16.850Z,1006.4
2017-03-22T07:11:16.832Z,1006.42
2017-03-22T07:12:16.809Z,1006.39
2017-03-22T07:13:16.790Z,1006.43
2017-03-22T07:14:16.769Z,1006.41
2017-03-22T07:15:16.747Z,1006.43
2017-03-22T07:16:16.728Z,1006.43
2017-03-22T07:17:16.706Z,1006.45
2017-03-22T07:18:16.685Z,1006.46
2017-03-22T07:19:16.665Z,1006.46
2017-03-22T07:20:16.643Z,1006.43
2017-03-22T07:21:16.624Z,1006.43
2017-03-22T07:22:16.604Z,1006.41
2017-03-22T07:23:16.583Z,1006.4
2017-03-22T07:24:16.766Z,1006.41
2017-03-22T07:25:16.543Z,1006.42
2017-03-22T07:26:16.523Z,1006.43
2017-03-22T07:27:16.503Z,1006.45
2017-03-22T07:28:16.481Z,1006.41
2017-03-22T07:29:16.461Z,1006.41
2017-03-22T07:30:16.440Z,1006.37
2017-03-22T07:31:16.420Z,1006.43
2017-03-22T07:32:16.398Z,1006.42
2017-03-22T07:33:16.382Z,1006.43
2017-03-22T07:34:16.360Z,1006.48
2017-03-22T07:35:16.344Z,1006.44
2017-03-22T07:36:16.321Z,1006.43
2017-03-22T07:37:16.300Z,1006.48
2017-03-22T07:38:16.279Z,1006.49
2017-03-22T07:39:16.260Z,1006.53
2017-03-22T07:40:16.241Z,1006.58
2017-03-22T07:41:16.220Z,1006.56
2017-03-22T07:42:16.203Z,1006.53
2017-03-22T07:43:16.188Z,1006.57
2017-03-22T07:44:16.159Z,1006.59
2017-03-22T07:45:16.141Z,1006.61
2017-03-22T07:46:16.120Z,1006.6
2017-03-22T07:47:16.100Z,1006.61
2017-03-22T07:48:16.081Z,1006.64
2017-03-22T07:49:16.062Z,1006.67
2017-03-22T07:50:16.042Z,1006.66
2017-03-22T07:51:16.022Z,1006.67
2017-03-22T07:52:16.002Z,1006.64
2017-03-22T07:53:15.982Z,1006.65
2017-03-22T07:54:15.962Z,1006.67
2017-03-22T07:55:15.941Z,1006.65
2017-03-22T07:56:15.925Z,1006.64
2017-03-22T07:57:15.904Z,1006.67
2017-03-22T07:58:15.884Z,1006.68
2017-03-22T07:59:15.866Z,1006.69
2017-03-22T08:00:15.845Z,1006.72
2017-03-22T08:01:15.826Z,1006.69
2017-03-22T08:02:15.808Z,1006.73
2017-03-22T08:03:15.787Z,1006.72
2017-03-22T08:04:15.768Z,1006.73
2017-03-22T08:05:15.749Z,1006.79
2017-03-22T08:06:15.731Z,1006.78
2017-03-22T08:07:15.714Z,1006.82
2017-03-22T08:08:15.695Z,1006.74
2017-03-22T08:09:15.672Z,1006.77
2017-03-22T08:10:15.653Z,1006.82
2017-03-22T08:11:15.635Z,1006.87
2017-03-22T08:12:15.615Z,1006.84
2017-03-22T08:13:15.596Z,1006.86
2017-03-22T08:14:15.577Z,1006.89
2017-03-22T08:15:15.558Z,1006.89
2017-03-22T08:16:15.539Z,1006.9
2017-03-22T08:17:15.524Z,1006.93
2017-03-22T08:18:15.502Z,1006.93
2017-03-22T08:19:15.484Z,1007.12
2017-03-22T08:20:15.464Z,1007.23
2017-03-22T08:21:15.448Z,1007.3
2017-03-22T08:22:15.428Z,1007.26
2017-03-22T08:23:15.410Z,1007.28
2017-03-22T08:24:15.394Z,1007.26
2017-03-22T08:25:15.376Z,1007.25
2017-03-22T08:26:15.360Z,1007.15
2017-03-22T08:27:15.344Z,1007.17
2017-03-22T08:28:15.327Z,1007.27
2017-03-22T08:29:15.317Z,1007.33
2017-03-22T08:30:15.304Z,1007.38
2017-03-22T08:31:15.284Z,1007.49
2017-03-22T08:32:15.270Z,1007.41
2017-03-22T08:33:15.257Z,1007.36
2017-03-22T08:34:15.245Z,1007.36
2017-03-22T08:35:15.232Z,1007.44
2017-03-22T08:36:15.219Z,1007.37
2017-03-22T08:37:15.209Z,1007.38
2017-03-22T08:38:15.196Z,1007.37
2017-03-22T08:39:15.186Z,1007.41
2017-03-22T08:40:15.179Z,1007.47
2017-03-22T08:41:15.167Z,1007.51
2017-03-22T08:42:15.155Z,1007.47
2017-03-22T08:43:15.218Z,1007.52
2017-03-22T08:44:15.137Z,1007.46
2017-03-22T08:45:15.130Z,1007.44
2017-03-22T08:46:15.120Z,1007.36
2017-03-22T08:47:15.112Z,1007.32
2017-03-22T08:48:15.103Z,1007.29
2017-03-22T08:49:15.094Z,1007.35
2017-03-22T08:50:15.086Z,1007.44
2017-03-22T08:51:15.080Z,1007.47
2017-03-22T08:52:15.070Z,1007.45
2017-03-22T08:53:15.059Z,1007.38
2017-03-22T08:54:15.105Z,1007.43
2017-03-22T08:55:15.044Z,1007.44
2017-03-22T08:56:15.039Z,1007.41
2017-03-22T08:57:15.029Z,1007.39
2017-03-22T08:58:15.019Z,1007.36
2017-03-22T08:59:15.017Z,1007.38
2017-03-22T09:00:15.005Z,1007.41
2017-03-22T09:01:15.004Z,1007.45
2017-03-22T09:02:14.988Z,1007.35
2017-03-22T09:03:14.984Z,1007.26
2017-03-22T09:04:14.974Z,1007.29
2017-03-22T09:05:14.968Z,1007.27
2017-03-22T09:06:14.959Z,1007.27
2017-03-22T09:07:14.950Z,1007.27
2017-03-22T09:08:14.945Z,1007.27
2017-03-22T09:09:14.936Z,1007.21
2017-03-22T09:10:14.929Z,1007.23
2017-03-22T09:11:14.921Z,1007.27
2017-03-22T09:12:14.914Z,1007.31
2017-03-22T09:13:14.906Z,1007.4
2017-03-22T09:14:14.896Z,1007.46
2017-03-22T09:15:14.895Z,1007.4
2017-03-22T09:16:14.879Z,1007.34
2017-03-22T09:17:14.874Z,1007.36
2017-03-22T09:18:14.889Z,1007.45
2017-03-22T09:19:14.855Z,1007.46
2017-03-22T09:20:14.851Z,1007.45
2017-03-22T09:21:14.841Z,1007.37
2017-03-22T09:22:14.834Z,1007.29
2017-03-22T09:23:14.825Z,1007.27
2017-03-22T09:24:15.018Z,1007.22
2017-03-22T09:25:14.809Z,1007.27
2017-03-22T09:26:14.806Z,1007.26
2017-03-22T09:27:14.797Z,1007.29
2017-03-22T09:28:14.788Z,1007.23
2017-03-22T09:29:14.777Z,1007.18
2017-03-22T09:30:14.771Z,1007.23
2017-03-22T09:31:14.884Z,1007.24
2017-03-22T09:32:14.758Z,1007.26
2017-03-22T09:33:14.746Z,1007.24
2017-03-22T09:34:14.737Z,1007.24
2017-03-22T09:35:14.731Z,1007.27
2017-03-22T09:36:14.724Z,1007.32
2017-03-22T09:37:14.713Z,1007.27
2017-03-22T09:38:14.706Z,1007.29
2017-03-22T09:39:14.698Z,1007.25
2017-03-22T09:40:14.688Z,1007.21
2017-03-22T09:41:14.679Z,1007.21
2017-03-22T09:42:14.677Z,1007.19
2017-03-22T09:43:14.662Z,1007.22
2017-03-22T09:44:14.653Z,1007.2
2017-03-22T09:45:14.643Z,1007.18
2017-03-22T09:46:14.637Z,1007.14
2017-03-22T09:47:14.626Z,1007.11
2017-03-22T09:48:14.616Z,1007.18
2017-03-22T09:49:14.609Z,1007.19
2017-03-22T09:50:14.600Z,1007.15
2017-03-22T09:51:14.590Z,1007.11
2017-03-22T09:52:14.583Z,1007.09
2017-03-22T09:53:14.572Z,1007.12
2017-03-22T09:54:14.564Z,1007.09
2017-03-22T09:55:14.555Z,1007.12
2017-03-22T09:56:14.545Z,1007.18
2017-03-22T09:57:14.541Z,1007.14
2017-03-22T09:58:14.530Z,1007.08
2017-03-22T09:59:14.520Z,1007.11
2017-03-22T10:00:14.515Z,1007.14
2017-03-22T10:01:14.509Z,1007.11
2017-03-22T10:02:14.499Z,1007.11
2017-03-22T10:03:14.492Z,1007.14
2017-03-22T10:04:14.482Z,1007.06
2017-03-22T10:05:14.474Z,1007.09
2017-03-22T10:06:14.466Z,1007.07
2017-03-22T10:07:14.457Z,1007.08
2017-03-22T10:08:14.449Z,1007.07
2017-03-22T10:09:14.439Z,1007.07
2017-03-22T10:10:14.434Z,1007.11
2017-03-22T10:11:14.420Z,1006.99
2017-03-22T10:12:14.413Z,1006.99
2017-03-22T10:13:14.406Z,1007.02
2017-03-22T10:14:14.398Z,1007.06
2017-03-22T10:15:14.387Z,1007.02
2017-03-22T10:16:14.378Z,1007
2017-03-22T10:17:14.375Z,1006.96
2017-03-22T10:18:14.362Z,1006.99
2017-03-22T10:19:14.355Z,1007.03
2017-03-22T10:20:14.346Z,1007.04
2017-03-22T10:21:14.341Z,1006.96
2017-03-22T10:22:14.332Z,1007.01
2017-03-22T10:23:14.321Z,1007.02
2017-03-22T10:24:14.311Z,1007.04
2017-03-22T10:25:14.308Z,1007.1
2017-03-22T10:26:14.300Z,1007.05
2017-03-22T10:27:14.291Z,1007
2017-03-22T10:28:14.284Z,1007.04
2017-03-22T10:29:14.276Z,1007.1
2017-03-22T10:30:14.271Z,1007.02
2017-03-22T10:31:14.265Z,1007.04
2017-03-22T10:32:14.259Z,1007.05
2017-03-22T10:33:14.249Z,1006.99
2017-03-22T10:34:14.245Z,1007.03
2017-03-22T10:35:14.235Z,1007.05
2017-03-22T10:36:14.230Z,1007.07
2017-03-22T10:37:14.225Z,1007.07
2017-03-22T10:38:14.221Z,1007.08
2017-03-22T10:39:14.213Z,1007.11
2017-03-22T10:40:14.211Z,1007.08
2017-03-22T10:41:14.202Z,1007.09
2017-03-22T10:42:14.196Z,1007.1
2017-03-22T10:43:14.190Z,1007.08
2017-03-22T10:44:14.184Z,1007.06
2017-03-22T10:45:14.184Z,1007.08
2017-03-22T10:46:14.174Z,1007.19
2017-03-22T10:47:14.168Z,1007.05
2017-03-22T10:48:14.163Z,1007.09
2017-03-22T10:49:14.159Z,1007.07
2017-03-22T10:50:14.154Z,1007.06
2017-03-22T10:51:14.151Z,1007.04
2017-03-22T10:52:14.150Z,1007.02
2017-03-22T10:53:14.189Z,1006.99
2017-03-22T10:54:14.137Z,1006.99
2017-03-22T10:55:14.135Z,1007.03
2017-03-22T10:56:14.129Z,1007.06
2017-03-22T10:57:14.124Z,1007.05
2017-03-22T10:58:14.120Z,1007.08
2017-03-22T10:59:14.117Z,1006.94
2017-03-22T11:00:14.112Z,1007.01
2017-03-22T11:01:14.108Z,1007.04
2017-03-22T11:02:14.103Z,1007.03
2017-03-22T11:03:14.099Z,1007
2017-03-22T11:04:14.096Z,1007.05
2017-03-22T11:05:14.090Z,1007.03
2017-03-22T11:06:14.086Z,1007.01
2017-03-22T11:07:14.085Z,1007.04
2017-03-22T11:08:14.076Z,1007.02
2017-03-22T11:09:14.071Z,1007
2017-03-22T11:10:14.069Z,1006.97
2017-03-22T11:11:14.062Z,1006.98
2017-03-22T11:12:14.058Z,1006.97
2017-03-22T11:13:14.052Z,1007
2017-03-22T11:14:14.046Z,1006.99
2017-03-22T11:15:14.040Z,1007.04
2017-03-22T11:16:14.034Z,1007.03
2017-03-22T11:17:14.029Z,1007
2017-03-22T11:18:14.021Z,1007.02
2017-03-22T11:19:14.015Z,1007
2017-03-22T11:20:14.009Z,1006.97
2017-03-22T11:21:14.003Z,1006.93
2017-03-22T11:22:14.004Z,1006.91
2017-03-22T11:23:13.994Z,1006.9
2017-03-22T11:24:14.185Z,1006.87
2017-03-22T11:25:13.974Z,1006.94
2017-03-22T11:26:13.966Z,1006.92
2017-03-22T11:27:13.959Z,1006.92
2017-03-22T11:28:13.953Z,1006.89
2017-03-22T11:29:13.946Z,1006.88
2017-03-22T11:30:13.940Z,1006.88
2017-03-22T11:31:13.931Z,1006.86
2017-03-22T11:32:13.925Z,1006.85
2017-03-22T11:33:13.916Z,1006.92
2017-03-22T11:34:13.910Z,1006.91
2017-03-22T11:35:14.109Z,1006.89
2017-03-22T11:36:13.902Z,1006.86
2017-03-22T11:37:13.890Z,1006.88
2017-03-22T11:38:13.883Z,1006.79
2017-03-22T11:39:13.876Z,1006.81
2017-03-22T11:40:13.875Z,1006.85
2017-03-22T11:41:13.865Z,1006.84
2017-03-22T11:42:13.851Z,1006.83
2017-03-22T11:43:13.842Z,1006.85
2017-03-22T11:44:13.833Z,1006.83
2017-03-22T11:45:13.828Z,1006.82
2017-03-22T11:46:13.825Z,1006.82
2017-03-22T11:47:13.812Z,1006.76
2017-03-22T11:48:13.799Z,1006.75
2017-03-22T11:49:13.791Z,1006.76
2017-03-22T11:50:13.783Z,1006.75
2017-03-22T11:51:13.775Z,1006.77
2017-03-22T11:52:13.765Z,1006.82
2017-03-22T11:53:13.755Z,1006.82
2017-03-22T11:54:13.750Z,1006.76
2017-03-22T11:55:13.737Z,1006.8
2017-03-22T11:56:13.726Z,1006.77
2017-03-22T11:57:13.720Z,1006.73
2017-03-22T11:58:13.710Z,1006.69
2017-03-22T11:59:13.705Z,1006.67
2017-03-22T12:00:13.696Z,1006.74
2017-03-22T12:01:13.688Z,1006.68
2017-03-22T12:02:13.677Z,1006.66
2017-03-22T12:03:13.672Z,1006.7
2017-03-22T12:04:13.660Z,1006.71
2017-03-22T12:05:13.650Z,1006.68
2017-03-22T12:06:13.896Z,1006.68
2017-03-22T12:07:13.636Z,1006.7
2017-03-22T12:08:13.632Z,1006.72